createdAt,value
2022-12-29T00:01:02.888Z,99258.34
2022-12-29T00:03:30.240Z,99239.97
2022-12-29T00:05:58.601Z,99263.75
2022-12-29T00:08:40.594Z,99260.44
2022-12-29T00:11:18.788Z,99276.09
2022-12-29T00:14:04.539Z,99269.16
2022-12-29T00:16:33.618Z,99270.00
2022-12-29T00:19:03.850Z,99278.72
2022-12-29T00:21:49.836Z,99263.56
2022-12-29T00:24:28.180Z,99233.72
2022-12-29T00:27:22.350Z,99215.22
2022-12-29T00:30:10.908Z,99218.88
2022-12-29T00:32:56.796Z,99221.66
2022-12-29T00:35:30.743Z,99223.06
2022-12-29T00:38:21.856Z,99215.44
2022-12-29T00:41:07.552Z,99220.94
2022-12-29T00:43:53.429Z,99240.09
2022-12-29T00:46:20.532Z,99217.22
2022-12-29T00:49:06.398Z,99219.00
2022-12-29T00:51:33.935Z,99231.31
2022-12-29T00:54:01.229Z,99222.50
2022-12-29T00:56:28.611Z,99228.47
2022-12-29T00:58:55.876Z,99242.56
2022-12-29T01:01:23.285Z,99243.38
2022-12-29T01:03:50.757Z,99226.81
2022-12-29T01:06:18.007Z,99240.97
2022-12-29T01:08:45.716Z,99243.75
2022-12-29T01:11:14.330Z,99257.91
2022-12-29T01:13:43.625Z,99261.44
2022-12-29T01:16:10.960Z,99253.56
2022-12-29T01:18:38.350Z,99261.63
2022-12-29T01:21:07.656Z,99269.56
2022-12-29T01:23:35.098Z,99270.44
2022-12-29T01:26:16.851Z,99273.13
2022-12-29T01:28:44.829Z,99267.00
2022-12-29T01:31:15.031Z,99275.06
2022-12-29T01:33:44.341Z,99286.66
2022-12-29T01:36:17.262Z,99281.38
2022-12-29T01:38:45.254Z,99288.47
2022-12-29T01:41:15.838Z,99287.66
2022-12-29T01:43:57.804Z,99300.88
2022-12-29T01:46:32.614Z,99294.56
2022-12-29T01:49:15.993Z,99293.69
2022-12-29T01:51:59.579Z,99276.84
2022-12-29T01:55:25.467Z,99279.44
2022-12-29T01:57:56.868Z,99261.75
2022-12-29T02:00:24.212Z,99262.72
2022-12-29T02:02:54.997Z,99267.91
2022-12-29T02:05:36.971Z,99265.34
2022-12-29T02:08:04.250Z,99268.78
2022-12-29T02:10:34.100Z,99258.16
2022-12-29T02:13:01.209Z,99262.63
2022-12-29T02:16:07.142Z,99275.94
2022-12-29T02:18:53.104Z,99262.75
2022-12-29T02:22:13.691Z,99268.81
2022-12-29T02:24:49.472Z,99261.59
2022-12-29T02:28:09.349Z,99231.75
2022-12-29T02:31:01.735Z,99219.41
2022-12-29T02:33:53.225Z,99226.13
2022-12-29T02:37:11.991Z,99198.78
2022-12-29T02:40:00.221Z,99179.34
2022-12-29T02:43:01.257Z,99172.38
2022-12-29T02:46:05.049Z,99171.47
2022-12-29T02:48:57.191Z,99174.19
2022-12-29T02:51:45.404Z,99180.34
2022-12-29T02:54:31.157Z,99192.59
2022-12-29T02:56:58.110Z,99172.16
2022-12-29T02:59:25.230Z,99154.59
2022-12-29T03:02:19.865Z,99144.78
2022-12-29T03:05:22.443Z,99134.66
2022-12-29T03:08:23.003Z,99089.00
2022-12-29T03:11:02.172Z,99071.19
2022-12-29T03:14:05.153Z,99057.84
2022-12-29T03:16:53.613Z,99036.78
2022-12-29T03:19:37.736Z,99040.56
2022-12-29T03:22:30.929Z,99030.97
2022-12-29T03:25:25.172Z,99026.94
2022-12-29T03:27:57.403Z,99010.28
2022-12-29T03:30:25.492Z,99002.50
2022-12-29T03:32:58.024Z,99000.69
2022-12-29T03:35:28.845Z,98972.50
2022-12-29T03:38:25.041Z,98966.78
2022-12-29T03:40:57.926Z,98978.44
2022-12-29T03:43:25.823Z,98955.78
2022-12-29T03:45:52.794Z,98962.06
2022-12-29T03:48:19.770Z,98943.88
2022-12-29T03:50:46.760Z,98946.56
2022-12-29T03:53:13.861Z,98942.91
2022-12-29T03:55:40.795Z,98955.56
2022-12-29T03:58:07.760Z,98937.25
2022-12-29T04:00:34.737Z,98933.50
2022-12-29T04:03:01.899Z,98923.25
2022-12-29T04:05:28.954Z,98922.69
2022-12-29T04:07:55.992Z,98951.59
2022-12-29T04:10:22.941Z,98981.84
2022-12-29T04:12:49.920Z,98999.59
2022-12-29T04:15:16.960Z,99011.22
2022-12-29T04:17:45.388Z,99022.47
2022-12-29T04:20:30.987Z,99023.25
2022-12-29T04:23:05.884Z,98992.75
2022-12-29T04:25:33.959Z,98941.22
2022-12-29T04:28:01.713Z,98933.91
2022-12-29T04:30:28.870Z,98951.59
2022-12-29T04:32:55.868Z,98968.63
2022-12-29T04:35:22.786Z,98954.72
2022-12-29T04:37:49.720Z,98957.69
2022-12-29T04:40:16.784Z,98913.00
2022-12-29T04:42:43.681Z,98901.38
2022-12-29T04:45:11.427Z,98892.34
2022-12-29T04:47:38.563Z,98884.78
2022-12-29T04:50:06.510Z,98891.41
2022-12-29T04:52:33.686Z,98902.72
2022-12-29T04:55:01.681Z,98888.97
2022-12-29T04:57:28.701Z,98891.00
2022-12-29T04:59:55.708Z,98895.41
2022-12-29T05:02:22.860Z,98889.84
2022-12-29T05:04:50.019Z,98905.50
2022-12-29T05:07:16.987Z,98881.03
2022-12-29T05:09:45.299Z,98876.84
2022-12-29T05:12:12.255Z,98893.47
2022-12-29T05:14:39.268Z,98895.56
2022-12-29T05:17:06.210Z,98913.63
2022-12-29T05:19:33.220Z,98876.34
2022-12-29T05:22:00.496Z,98859.75
2022-12-29T05:24:27.531Z,98857.13
2022-12-29T05:26:54.444Z,98867.34
2022-12-29T05:29:21.520Z,98890.31
2022-12-29T05:31:48.562Z,98889.44
2022-12-29T05:34:15.797Z,98897.44
2022-12-29T05:36:42.774Z,98853.44
2022-12-29T05:39:09.776Z,98861.78
2022-12-29T05:41:36.727Z,98814.06
2022-12-29T05:44:04.084Z,98814.94
2022-12-29T05:46:31.476Z,98799.00
2022-12-29T05:48:58.477Z,98786.19
2022-12-29T05:51:25.447Z,98803.88
2022-12-29T05:53:52.493Z,98805.00
2022-12-29T05:56:19.537Z,98834.78
2022-12-29T05:58:46.552Z,98788.47
2022-12-29T06:01:13.694Z,98792.91
2022-12-29T06:03:47.740Z,98772.78
2022-12-29T06:06:15.065Z,98776.72
2022-12-29T06:08:42.013Z,98757.47
2022-12-29T06:11:09.209Z,98751.28
2022-12-29T06:13:36.586Z,98708.06
2022-12-29T06:16:03.836Z,98696.09
2022-12-29T06:18:30.808Z,98682.88
2022-12-29T06:21:03.033Z,98693.16
2022-12-29T06:23:30.543Z,98667.69
2022-12-29T06:25:58.480Z,98678.53
2022-12-29T06:28:26.079Z,98636.47
2022-12-29T06:30:53.093Z,98645.41
2022-12-29T06:33:20.217Z,98686.75
2022-12-29T06:35:47.516Z,98706.66
2022-12-29T06:38:15.910Z,98736.72
2022-12-29T06:40:46.237Z,98736.16
2022-12-29T06:43:13.391Z,98786.72
2022-12-29T06:45:41.341Z,98762.19
2022-12-29T06:48:08.880Z,98782.47
2022-12-29T06:50:36.013Z,98759.31
2022-12-29T06:53:03.076Z,98752.78
2022-12-29T06:55:30.229Z,98731.81
2022-12-29T06:57:59.329Z,98740.81
2022-12-29T07:00:26.735Z,98756.03
2022-12-29T07:02:56.138Z,98747.41
2022-12-29T07:05:23.262Z,98767.00
2022-12-29T07:07:50.213Z,98733.72
2022-12-29T07:10:17.279Z,98716.88
2022-12-29T07:12:44.246Z,98713.72
2022-12-29T07:15:11.591Z,98725.38
2022-12-29T07:17:38.659Z,98733.91
2022-12-29T07:20:07.191Z,98722.31
2022-12-29T07:22:34.478Z,98711.84
2022-12-29T07:25:01.585Z,98716.22
2022-12-29T07:27:28.545Z,98654.31
2022-12-29T07:29:55.742Z,98650.63
2022-12-29T07:32:22.718Z,98649.06
2022-12-29T07:34:49.660Z,98648.59
2022-12-29T07:37:16.767Z,98629.59
2022-12-29T07:39:44.728Z,98643.19
2022-12-29T07:42:11.720Z,98653.22
2022-12-29T07:44:38.768Z,98676.88
2022-12-29T07:47:05.822Z,98661.94
2022-12-29T07:49:32.873Z,98680.47
2022-12-29T07:51:59.825Z,98657.28
2022-12-29T07:54:26.866Z,98634.28
2022-12-29T07:56:53.972Z,98647.00
2022-12-29T07:59:21.119Z,98677.72
2022-12-29T08:01:49.151Z,98705.78
2022-12-29T08:04:16.345Z,98639.50
2022-12-29T08:06:43.450Z,98590.19
2022-12-29T08:09:15.068Z,98610.81
2022-12-29T08:11:45.792Z,98609.56
2022-12-29T08:14:12.795Z,98608.78
2022-12-29T08:16:39.760Z,98609.91
2022-12-29T08:19:06.854Z,98591.09
2022-12-29T08:21:33.855Z,98616.66
2022-12-29T08:24:01.089Z,98629.66
2022-12-29T08:26:29.178Z,98652.56
2022-12-29T08:28:56.840Z,98645.53
2022-12-29T08:31:25.463Z,98606.75
2022-12-29T08:33:52.686Z,98586.81
2022-12-29T08:36:19.738Z,98585.91
2022-12-29T08:38:46.767Z,98621.22
2022-12-29T08:41:13.815Z,98585.75
2022-12-29T08:43:46.884Z,98606.16
2022-12-29T08:46:17.993Z,98616.41
2022-12-29T08:48:45.451Z,98635.06
2022-12-29T08:51:12.928Z,98654.63
2022-12-29T08:53:40.014Z,98684.16
2022-12-29T08:56:07.815Z,98689.31
2022-12-29T08:58:34.810Z,98708.44
2022-12-29T09:01:01.736Z,98676.00
2022-12-29T09:04:04.503Z,98667.66
2022-12-29T09:06:18.257Z,98660.53
2022-12-29T09:08:54.690Z,98646.31
2022-12-29T09:11:25.182Z,98639.69
2022-12-29T09:13:53.545Z,98642.59
2022-12-29T09:16:31.383Z,98623.16
2022-12-29T09:18:59.355Z,98637.63
2022-12-29T09:21:26.621Z,98655.41
2022-12-29T09:23:53.947Z,98678.78
2022-12-29T09:26:21.240Z,98715.91
2022-12-29T09:31:30.667Z,98747.53
2022-12-29T09:34:08.257Z,98761.84
2022-12-29T09:36:37.015Z,98780.22
2022-12-29T09:39:04.108Z,98771.25
2022-12-29T09:41:57.275Z,98788.06
2022-12-29T09:44:50.512Z,98778.47
2022-12-29T09:47:20.255Z,98792.94
2022-12-29T09:50:02.890Z,98817.88
2022-12-29T09:52:48.779Z,98833.84
2022-12-29T09:55:21.692Z,98836.63
2022-12-29T09:58:07.123Z,98846.38
2022-12-29T10:01:03.247Z,98847.06
2022-12-29T10:03:48.460Z,98842.66
2022-12-29T10:06:25.227Z,98835.53
2022-12-29T10:09:10.386Z,98824.75
2022-12-29T10:12:03.055Z,98832.78
2022-12-29T10:15:09.728Z,98831.13
2022-12-29T10:18:21.563Z,98836.22
2022-12-29T10:21:36.922Z,98809.63
2022-12-29T10:24:09.153Z,98790.22
2022-12-29T10:26:47.049Z,98791.72
2022-12-29T10:29:16.963Z,98776.63
2022-12-29T10:32:07.901Z,98785.53
2022-12-29T10:34:43.101Z,98768.31
2022-12-29T10:37:27.530Z,98749.78
2022-12-29T10:40:00.944Z,98751.47
2022-12-29T10:42:53.362Z,98768.91
2022-12-29T10:45:23.235Z,98791.03
2022-12-29T10:48:05.463Z,98835.22
2022-12-29T10:50:32.971Z,98841.31
2022-12-29T10:53:06.073Z,98826.22
2022-12-29T10:55:39.476Z,98817.16
2022-12-29T10:58:12.611Z,98780.81
2022-12-29T11:00:40.902Z,98742.69
2022-12-29T11:04:01.052Z,98756.38
2022-12-29T11:06:35.514Z,98756.31
2022-12-29T11:09:32.460Z,98689.75
2022-12-29T11:12:28.412Z,98659.25
2022-12-29T11:15:15.927Z,98622.06
2022-12-29T11:17:48.853Z,98607.09
2022-12-29T11:20:39.691Z,98628.34
2022-12-29T11:23:32.372Z,98660.22
2022-12-29T11:26:18.844Z,98663.53
2022-12-29T11:29:05.176Z,98660.44
2022-12-29T11:31:32.295Z,98673.91
2022-12-29T11:33:59.276Z,98643.72
2022-12-29T11:36:26.408Z,98634.06
2022-12-29T11:38:56.529Z,98615.72
2022-12-29T11:41:31.465Z,98606.00
2022-12-29T11:44:03.971Z,98625.88
2022-12-29T11:46:36.187Z,98632.25
2022-12-29T11:49:05.236Z,98608.53
2022-12-29T11:51:47.676Z,98590.19
2022-12-29T11:54:27.404Z,98575.81
2022-12-29T11:56:56.093Z,98573.00
2022-12-29T11:59:59.700Z,98645.19
2022-12-29T12:03:04.024Z,98661.53
2022-12-29T12:05:55.010Z,98680.88
2022-12-29T12:08:54.393Z,98744.69
2022-12-29T12:11:34.310Z,98795.16
2022-12-29T12:14:34.836Z,98816.34
2022-12-29T12:17:16.190Z,98835.72
2022-12-29T12:20:14.005Z,98866.59
2022-12-29T12:22:50.573Z,98879.66
2022-12-29T12:25:27.214Z,98902.47
2022-12-29T12:28:42.005Z,98925.47
2022-12-29T12:31:46.702Z,98940.44
2022-12-29T12:34:27.609Z,98942.19
2022-12-29T12:37:29.887Z,98956.38
2022-12-29T12:40:37.944Z,98954.56
2022-12-29T12:43:14.570Z,98956.34
2022-12-29T12:46:16.518Z,98953.38
2022-12-29T12:49:08.509Z,98953.25
2022-12-29T12:52:02.903Z,98903.75
2022-12-29T12:55:19.997Z,98872.00
2022-12-29T12:58:20.146Z,98856.25
2022-12-29T13:00:50.621Z,98813.00
2022-12-29T13:03:46.080Z,98793.53
2022-12-29T13:06:32.396Z,98789.84
2022-12-29T13:09:46.722Z,98800.84
2022-12-29T13:12:44.601Z,98814.25
2022-12-29T13:15:52.306Z,98830.22
2022-12-29T13:19:14.789Z,98833.00
2022-12-29T13:22:05.985Z,98848.94
2022-12-29T13:24:57.607Z,98837.53
2022-12-29T13:28:14.375Z,98835.88
2022-12-29T13:31:07.274Z,98830.75
2022-12-29T13:34:01.345Z,98844.22
2022-12-29T13:36:46.674Z,98853.16
2022-12-29T13:39:31.915Z,98863.91
2022-12-29T13:42:00.272Z,98880.66
2022-12-29T13:44:36.928Z,98875.50
2022-12-29T13:48:11.816Z,98877.50
2022-12-29T13:50:43.870Z,98883.81
2022-12-29T13:53:18.055Z,98897.94
2022-12-29T13:56:10.300Z,98911.19
2022-12-29T13:59:15.057Z,98919.09
2022-12-29T14:02:05.109Z,98918.09
2022-12-29T14:04:37.280Z,98926.06
2022-12-29T14:07:17.107Z,98926.97
2022-12-29T14:12:45.700Z,98880.16
2022-12-29T14:15:13.030Z,98876.72
2022-12-29T14:17:44.233Z,98876.69
2022-12-29T14:20:39.131Z,98878.50
2022-12-29T14:23:12.917Z,98879.38
2022-12-29T14:26:34.918Z,98904.13
2022-12-29T14:29:32.031Z,98894.34
2022-12-29T14:32:00.025Z,98907.63
2022-12-29T14:34:32.929Z,98898.84
2022-12-29T14:39:45.854Z,98911.06
2022-12-29T14:42:18.533Z,98898.06
2022-12-29T14:45:00.660Z,98899.81
2022-12-29T14:47:42.306Z,98916.66
2022-12-29T14:50:16.467Z,98913.13
2022-12-29T14:53:05.202Z,98929.81
2022-12-29T14:55:58.314Z,98915.72
2022-12-29T14:58:55.656Z,98921.97
2022-12-29T15:01:44.829Z,98912.91
2022-12-29T15:04:36.734Z,98911.34
2022-12-29T15:07:10.375Z,98916.69
2022-12-29T15:09:50.384Z,98912.38
2022-12-29T15:12:41.946Z,98921.16
2022-12-29T15:15:27.714Z,98916.06
2022-12-29T15:17:56.495Z,98923.94
2022-12-29T15:20:31.195Z,98931.06
2022-12-29T15:23:04.438Z,98934.47
2022-12-29T15:25:32.573Z,98938.88
2022-12-29T15:28:06.468Z,98948.41
2022-12-29T15:30:33.794Z,98942.53
2022-12-29T15:33:01.006Z,98961.69
2022-12-29T15:35:39.739Z,98958.25
2022-12-29T15:38:30.365Z,98958.50
2022-12-29T15:41:08.854Z,98971.75
2022-12-29T15:43:59.172Z,98990.06
2022-12-29T15:46:32.264Z,98990.25
2022-12-29T15:48:59.770Z,99001.63
2022-12-29T15:51:32.523Z,99014.75
2022-12-29T15:53:59.803Z,99018.38
2022-12-29T15:56:30.958Z,99026.41
2022-12-29T15:58:58.145Z,99046.63
2022-12-29T16:01:32.729Z,99066.00
2022-12-29T16:04:04.469Z,99055.38
2022-12-29T16:06:40.365Z,99070.31
2022-12-29T16:09:36.285Z,99051.06
2022-12-29T16:12:35.179Z,99060.59
2022-12-29T16:15:13.802Z,99058.16
2022-12-29T16:17:54.277Z,99074.59
2022-12-29T16:20:41.254Z,99058.41
2022-12-29T16:23:22.611Z,99037.34
2022-12-29T16:25:49.812Z,99041.59
2022-12-29T16:28:37.393Z,99035.47
2022-12-29T16:31:19.587Z,99025.91
2022-12-29T16:33:52.043Z,99036.56
2022-12-29T16:36:56.933Z,99050.59
2022-12-29T16:39:35.813Z,99051.59
2022-12-29T16:42:36.259Z,99070.09
2022-12-29T16:45:25.365Z,99078.91
2022-12-29T16:48:07.649Z,99097.44
2022-12-29T16:50:37.960Z,99105.56
2022-12-29T16:53:06.926Z,99133.00
2022-12-29T16:55:34.139Z,99158.44
2022-12-29T16:58:01.585Z,99171.63
2022-12-29T17:00:35.746Z,99175.22
2022-12-29T17:03:04.530Z,99184.81
2022-12-29T17:05:31.617Z,99200.53
2022-12-29T17:08:02.007Z,99199.66
2022-12-29T17:10:48.356Z,99198.84
2022-12-29T17:13:15.489Z,99200.56
2022-12-29T17:15:42.632Z,99200.50
2022-12-29T17:18:14.143Z,99186.47
2022-12-29T17:20:42.251Z,99182.06
2022-12-29T17:23:21.153Z,99169.81
2022-12-29T17:25:54.841Z,99184.72
2022-12-29T17:28:28.771Z,99185.53
2022-12-29T17:31:02.451Z,99189.06
2022-12-29T17:33:39.089Z,99186.50
2022-12-29T17:36:06.464Z,99191.75
2022-12-29T17:38:37.681Z,99192.56
2022-12-29T17:41:04.943Z,99195.28
2022-12-29T17:43:36.685Z,99195.28
2022-12-29T17:46:08.122Z,99211.16
2022-12-29T17:48:35.602Z,99208.63
2022-12-29T17:51:02.770Z,99217.47
2022-12-29T17:53:31.327Z,99221.88
2022-12-29T17:55:58.328Z,99221.00
2022-12-29T17:58:29.042Z,99224.44
2022-12-29T18:00:59.871Z,99206.91
2022-12-29T18:03:34.656Z,99192.84
2022-12-29T18:06:05.228Z,99195.50
2022-12-29T18:08:34.868Z,99185.84
2022-12-29T18:11:02.422Z,99173.56
2022-12-29T18:13:43.993Z,99186.81
2022-12-29T18:16:14.019Z,99201.81
2022-12-29T18:18:41.394Z,99207.09
2022-12-29T18:21:18.007Z,99210.66
2022-12-29T18:23:45.626Z,99226.47
2022-12-29T18:26:25.643Z,99226.50
2022-12-29T18:28:56.382Z,99234.41
2022-12-29T18:31:27.354Z,99249.34
2022-12-29T18:33:57.327Z,99248.47
2022-12-29T18:36:25.027Z,99253.72
2022-12-29T18:38:54.696Z,99253.75
2022-12-29T18:41:31.206Z,99272.19
2022-12-29T18:43:59.754Z,99285.34
2022-12-29T18:46:27.045Z,99302.03
2022-12-29T18:48:54.666Z,99307.31
2022-12-29T18:51:26.135Z,99317.84
2022-12-29T18:53:54.474Z,99324.00
2022-12-29T18:56:23.102Z,99319.59
2022-12-29T18:58:51.696Z,99331.91
2022-12-29T19:01:25.489Z,99341.56
2022-12-29T19:03:52.803Z,99353.81
2022-12-29T19:06:21.513Z,99370.53
2022-12-29T19:08:48.793Z,99383.69
2022-12-29T19:11:16.198Z,99387.22
2022-12-29T19:13:43.182Z,99387.19
2022-12-29T19:16:19.717Z,99403.03
2022-12-29T19:18:58.271Z,99408.28
2022-12-29T19:21:34.146Z,99407.41
2022-12-29T19:24:01.099Z,99408.31
2022-12-29T19:26:36.593Z,99410.94
2022-12-29T19:29:06.461Z,99410.94
2022-12-29T19:31:34.038Z,99414.47
2022-12-29T19:34:03.222Z,99428.53
2022-12-29T19:36:32.745Z,99431.16
2022-12-29T19:39:00.213Z,99426.75
2022-12-29T19:41:27.311Z,99423.25
2022-12-29T19:43:54.569Z,99426.75
2022-12-29T19:46:23.515Z,99434.66
2022-12-29T19:48:51.806Z,99426.75
2022-12-29T19:51:20.418Z,99437.31
2022-12-29T19:53:48.059Z,99441.69
2022-12-29T19:56:15.497Z,99451.38
2022-12-29T19:58:47.259Z,99442.56
2022-12-29T20:01:22.465Z,99455.75
2022-12-29T20:03:50.507Z,99462.78
2022-12-29T20:06:18.797Z,99469.81
2022-12-29T20:08:45.869Z,99467.19
2022-12-29T20:11:17.095Z,99485.63
2022-12-29T20:13:50.599Z,99488.28
2022-12-29T20:16:20.229Z,99491.78
2022-12-29T20:18:48.732Z,99492.66
2022-12-29T20:21:22.378Z,99501.44
2022-12-29T20:23:51.874Z,99503.19
2022-12-29T20:26:23.965Z,99512.84
2022-12-29T20:28:52.436Z,99518.13
2022-12-29T20:31:42.597Z,99524.28
2022-12-29T20:34:09.887Z,99529.56
2022-12-29T20:36:41.138Z,99540.09
2022-12-29T20:39:12.810Z,99541.84
2022-12-29T20:41:39.801Z,99553.28
2022-12-29T20:44:07.090Z,99555.03
2022-12-29T20:46:41.198Z,99551.53
2022-12-29T20:49:10.709Z,99553.25
2022-12-29T20:52:04.409Z,99561.16
2022-12-29T20:54:25.056Z,99568.19
2022-12-29T20:56:52.579Z,99570.81
2022-12-29T20:59:28.461Z,99581.34
2022-12-29T21:01:57.067Z,99581.34
2022-12-29T21:04:24.262Z,99587.50
2022-12-29T21:06:51.248Z,99589.22
2022-12-29T21:09:18.307Z,99596.22
2022-12-29T21:11:46.572Z,99599.72
2022-12-29T21:14:13.853Z,99600.59
2022-12-29T21:16:40.961Z,99609.41
2022-12-29T21:19:08.072Z,99627.00
2022-12-29T21:21:35.235Z,99625.25
2022-12-29T21:24:05.872Z,99627.88
2022-12-29T21:26:33.991Z,99645.41
2022-12-29T21:29:03.412Z,99632.25
2022-12-29T21:31:37.361Z,99640.16
2022-12-29T21:34:05.823Z,99653.38
2022-12-29T21:36:33.579Z,99649.00
2022-12-29T21:39:03.399Z,99656.00
2022-12-29T21:41:30.972Z,99633.19
2022-12-29T21:44:17.466Z,99660.44
2022-12-29T21:46:49.660Z,99665.72
2022-12-29T21:49:16.765Z,99665.69
2022-12-29T21:51:50.129Z,99664.78
2022-12-29T21:54:47.874Z,99670.06
2022-12-29T21:57:38.577Z,99668.31
2022-12-29T22:00:31.814Z,99672.72
2022-12-29T22:03:23.126Z,99674.47
2022-12-29T22:06:10.775Z,99683.25
2022-12-29T22:08:56.751Z,99685.88
2022-12-29T22:11:42.598Z,99686.75
2022-12-29T22:14:09.852Z,99699.03
2022-12-29T22:16:36.968Z,99692.91
2022-12-29T22:19:04.213Z,99689.41
2022-12-29T22:21:31.713Z,99684.97
2022-12-29T22:23:58.790Z,99694.63
2022-12-29T22:26:25.773Z,99703.47
2022-12-29T22:28:52.989Z,99701.72
2022-12-29T22:31:32.860Z,99692.91
2022-12-29T22:34:05.407Z,99704.28
2022-12-29T22:36:32.798Z,99691.94
2022-12-29T22:39:00.115Z,99693.78
2022-12-29T22:41:27.167Z,99693.84
2022-12-29T22:43:55.049Z,99699.25
2022-12-29T22:46:22.419Z,99684.28
2022-12-29T22:48:49.731Z,99666.66
2022-12-29T22:51:16.685Z,99664.91
2022-12-29T22:53:45.573Z,99662.28
2022-12-29T22:56:14.021Z,99655.28
2022-12-29T22:58:47.448Z,99634.16
2022-12-29T23:01:17.403Z,99637.63
2022-12-29T23:03:44.969Z,99636.72
2022-12-29T23:06:16.263Z,99655.13
2022-12-29T23:08:44.202Z,99652.44
2022-12-29T23:11:13.024Z,99646.13
2022-12-29T23:13:41.224Z,99654.94
2022-12-29T23:16:08.729Z,99658.41
2022-12-29T23:18:36.039Z,99674.31
2022-12-29T23:21:03.099Z,99683.16
2022-12-29T23:23:49.746Z,99673.50
2022-12-29T23:26:19.070Z,99654.94
2022-12-29T23:28:46.215Z,99663.59
2022-12-29T23:31:14.203Z,99684.69
2022-12-29T23:33:41.769Z,99697.97
2022-12-29T23:36:09.063Z,99676.75
2022-12-29T23:38:36.123Z,99693.34
2022-12-29T23:41:03.084Z,99711.75
2022-12-29T23:43:30.143Z,99715.13
2022-12-29T23:45:57.164Z,99735.44
2022-12-29T23:48:24.453Z,99756.72
2022-12-29T23:50:51.542Z,99747.97
2022-12-29T23:53:18.535Z,99738.19
2022-12-29T23:55:53.547Z,99748.69
2022-12-29T23:58:21.061Z,99754.78
